createdAt,value
2023-02-16T00:01:54.760Z,-1.22
2023-02-16T00:04:24.680Z,-1.48
2023-02-16T00:06:51.888Z,-1.33
2023-02-16T00:09:19.719Z,-1.36
2023-02-16T00:12:06.133Z,-1.33
2023-02-16T00:14:35.318Z,-1.35
2023-02-16T00:17:02.930Z,-1.36
2023-02-16T00:19:37.130Z,-1.34
2023-02-16T00:22:05.368Z,-1.47
2023-02-16T00:24:32.610Z,-1.44
2023-02-16T00:27:01.071Z,-1.51
2023-02-16T00:29:37.749Z,-1.62
2023-02-16T00:32:06.287Z,-1.46
2023-02-16T00:34:41.423Z,-1.63
2023-02-16T00:37:13.218Z,-1.71
2023-02-16T00:39:41.390Z,-1.70
2023-02-16T00:42:18.579Z,-1.84
2023-02-16T00:44:48.269Z,-1.81
2023-02-16T00:47:37.310Z,-1.70
2023-02-16T00:50:14.182Z,-1.73
2023-02-16T00:52:44.111Z,-1.87
2023-02-16T00:55:16.952Z,-1.81
2023-02-16T00:57:51.852Z,-1.83
2023-02-16T01:00:25.631Z,-1.83
2023-02-16T01:02:55.448Z,-1.79
2023-02-16T01:05:22.761Z,-1.93
2023-02-16T01:08:08.052Z,-1.91
2023-02-16T01:10:54.680Z,-2.04
2023-02-16T01:13:22.640Z,-2.15
2023-02-16T01:15:49.365Z,-2.06
2023-02-16T01:18:18.300Z,-2.11
2023-02-16T01:20:45.638Z,-2.05
2023-02-16T01:23:14.328Z,-2.05
2023-02-16T01:25:41.643Z,-2.02
2023-02-16T01:28:23.611Z,-1.96
2023-02-16T01:30:51.868Z,-1.87
2023-02-16T01:33:19.830Z,-1.87
2023-02-16T01:35:46.904Z,-1.84
2023-02-16T01:38:18.915Z,-1.67
2023-02-16T01:40:53.528Z,-1.60
2023-02-16T01:46:02.030Z,-1.75
2023-02-16T01:48:30.483Z,-1.63
2023-02-16T01:51:12.086Z,-1.63
2023-02-16T01:53:47.509Z,-1.88
2023-02-16T01:56:32.696Z,-1.58
2023-02-16T01:59:08.960Z,-1.82
2023-02-16T02:01:41.242Z,-1.80
2023-02-16T02:04:41.615Z,-1.84
2023-02-16T02:07:15.603Z,-2.12
2023-02-16T02:09:50.142Z,-1.98
2023-02-16T02:12:44.832Z,-1.97
2023-02-16T02:15:14.203Z,-2.28
2023-02-16T02:17:42.069Z,-2.31
2023-02-16T02:20:11.519Z,-2.23
2023-02-16T02:23:18.719Z,-2.19
2023-02-16T02:26:22.949Z,-2.10
2023-02-16T02:29:07.912Z,-2.14
2023-02-16T02:31:52.750Z,-2.12
2023-02-16T02:34:55.015Z,-2.04
2023-02-16T02:37:32.113Z,-2.18
2023-02-16T02:40:34.993Z,-2.15
2023-02-16T02:43:16.615Z,-2.30
2023-02-16T02:45:59.663Z,-2.25
2023-02-16T02:48:33.024Z,-2.30
2023-02-16T02:51:21.808Z,-2.42
2023-02-16T02:54:14.104Z,-2.42
2023-02-16T02:57:06.096Z,-2.41
2023-02-16T02:59:53.461Z,-2.49
2023-02-16T03:02:24.288Z,-2.52
2023-02-16T03:04:53.751Z,-2.75
2023-02-16T03:07:43.745Z,-2.60
2023-02-16T03:10:29.320Z,-2.64
2023-02-16T03:12:58.518Z,-2.74
2023-02-16T03:15:26.528Z,-2.61
2023-02-16T03:18:14.853Z,-2.64
2023-02-16T03:21:02.565Z,-2.76
2023-02-16T03:23:48.041Z,-2.92
2023-02-16T03:26:33.924Z,-2.77
2023-02-16T03:29:21.446Z,-3.03
2023-02-16T03:31:49.436Z,-2.64
2023-02-16T03:34:17.824Z,-2.81
2023-02-16T03:36:48.631Z,-2.73
2023-02-16T03:39:15.889Z,-2.79
2023-02-16T03:41:47.794Z,-2.85
2023-02-16T03:44:14.754Z,-3.07
2023-02-16T03:46:41.639Z,-2.91
2023-02-16T03:49:08.524Z,-2.94
2023-02-16T03:51:35.236Z,-3.20
2023-02-16T03:54:01.820Z,-3.19
2023-02-16T03:56:28.447Z,-3.29
2023-02-16T03:58:55.001Z,-3.58
2023-02-16T04:01:21.621Z,-3.56
2023-02-16T04:03:48.709Z,-3.58
2023-02-16T04:06:15.437Z,-3.41
2023-02-16T04:08:42.067Z,-3.52
2023-02-16T04:11:27.133Z,-3.41
2023-02-16T04:13:53.894Z,-3.26
2023-02-16T04:16:20.534Z,-3.55
2023-02-16T04:18:47.195Z,-3.59
2023-02-16T04:21:14.384Z,-3.56
2023-02-16T04:23:41.172Z,-3.49
2023-02-16T04:26:07.829Z,-3.82
2023-02-16T04:28:34.436Z,-3.55
2023-02-16T04:31:01.237Z,-3.61
2023-02-16T04:33:28.045Z,-3.77
2023-02-16T04:35:54.703Z,-3.69
2023-02-16T04:38:21.261Z,-3.50
2023-02-16T04:40:47.864Z,-3.50
2023-02-16T04:43:14.487Z,-3.44
2023-02-16T04:45:41.370Z,-3.61
2023-02-16T04:48:08.040Z,-3.40
2023-02-16T04:50:34.744Z,-3.43
2023-02-16T04:53:01.505Z,-3.47
2023-02-16T04:55:28.246Z,-3.46
2023-02-16T04:57:54.818Z,-3.61
2023-02-16T05:00:21.876Z,-3.31
2023-02-16T05:02:48.572Z,-3.32
2023-02-16T05:05:15.236Z,-3.36
2023-02-16T05:07:41.825Z,-3.59
2023-02-16T05:10:09.204Z,-3.39
2023-02-16T05:12:54.510Z,-3.51
2023-02-16T05:15:21.198Z,-3.46
2023-02-16T05:17:47.940Z,-3.32
2023-02-16T05:20:14.756Z,-3.35
2023-02-16T05:22:41.501Z,-3.40
2023-02-16T05:25:08.159Z,-3.40
2023-02-16T05:27:35.516Z,-3.53
2023-02-16T05:30:02.255Z,-3.52
2023-02-16T05:32:28.989Z,-3.67
2023-02-16T05:34:55.647Z,-3.57
2023-02-16T05:37:22.364Z,-3.52
2023-02-16T05:39:49.075Z,-3.27
2023-02-16T05:42:15.842Z,-3.21
2023-02-16T05:44:42.475Z,-3.09
2023-02-16T05:47:09.271Z,-2.98
2023-02-16T05:49:36.180Z,-2.87
2023-02-16T05:52:03.092Z,-2.87
2023-02-16T05:54:29.927Z,-2.58
2023-02-16T05:56:56.564Z,-2.63
2023-02-16T05:59:23.477Z,-1.98
2023-02-16T06:01:52.219Z,-1.64
2023-02-16T06:04:20.394Z,-1.41
2023-02-16T06:06:47.266Z,-1.29
2023-02-16T06:09:13.866Z,-0.83
2023-02-16T06:11:40.771Z,-0.30
2023-02-16T06:14:14.303Z,0.25
2023-02-16T06:16:43.341Z,0.64
2023-02-16T06:19:10.560Z,0.91
2023-02-16T06:21:38.566Z,0.66
2023-02-16T06:24:07.112Z,0.81
2023-02-16T06:26:34.102Z,1.22
2023-02-16T06:29:01.082Z,1.54
2023-02-16T06:31:28.213Z,1.71
2023-02-16T06:33:56.838Z,1.38
2023-02-16T06:36:24.502Z,1.43
2023-02-16T06:38:51.140Z,1.45
2023-02-16T06:41:31.485Z,1.45
2023-02-16T06:43:59.825Z,1.41
2023-02-16T06:46:26.951Z,1.25
2023-02-16T06:48:54.228Z,1.39
2023-02-16T06:51:21.369Z,1.08
2023-02-16T06:53:48.068Z,0.96
2023-02-16T06:56:14.762Z,0.71
2023-02-16T06:58:41.722Z,0.76
2023-02-16T07:01:08.506Z,0.74
2023-02-16T07:03:35.401Z,0.71
2023-02-16T07:06:02.391Z,0.85
2023-02-16T07:08:29.282Z,0.90
2023-02-16T07:10:56.017Z,0.65
2023-02-16T07:13:22.700Z,0.50
2023-02-16T07:15:49.455Z,1.00
2023-02-16T07:18:16.095Z,0.75
2023-02-16T07:20:42.746Z,0.46
2023-02-16T07:23:09.336Z,0.64
2023-02-16T07:25:37.070Z,0.79
2023-02-16T07:28:04.527Z,1.02
2023-02-16T07:30:31.305Z,0.83
2023-02-16T07:32:58.042Z,0.63
2023-02-16T07:35:25.776Z,0.76
2023-02-16T07:37:53.054Z,0.51
2023-02-16T07:40:19.817Z,0.81
2023-02-16T07:42:46.396Z,0.42
2023-02-16T07:45:13.030Z,0.44
2023-02-16T07:47:39.786Z,0.45
2023-02-16T07:50:07.031Z,0.28
2023-02-16T07:52:34.556Z,0.49
2023-02-16T07:55:01.290Z,0.57
2023-02-16T07:57:29.243Z,0.89
2023-02-16T07:59:56.581Z,0.89
2023-02-16T08:02:24.437Z,1.14
2023-02-16T08:04:53.961Z,1.26
2023-02-16T08:07:21.004Z,1.38
2023-02-16T08:09:47.652Z,1.51
2023-02-16T08:12:15.663Z,1.62
2023-02-16T08:14:42.783Z,1.68
2023-02-16T08:17:09.603Z,1.80
2023-02-16T08:19:39.529Z,1.90
2023-02-16T08:22:07.641Z,1.92
2023-02-16T08:24:34.987Z,2.29
2023-02-16T08:27:04.364Z,2.33
2023-02-16T08:29:32.215Z,2.37
2023-02-16T08:31:58.990Z,2.47
2023-02-16T08:34:26.433Z,2.69
2023-02-16T08:36:56.614Z,2.79
2023-02-16T08:39:30.017Z,2.93
2023-02-16T08:41:57.082Z,3.15
2023-02-16T08:44:25.403Z,3.05
2023-02-16T08:46:55.137Z,2.84
2023-02-16T08:49:23.785Z,3.20
2023-02-16T08:51:54.818Z,3.23
2023-02-16T08:54:26.588Z,3.37
2023-02-16T08:56:54.310Z,3.35
2023-02-16T08:59:22.358Z,3.53
2023-02-16T09:01:49.469Z,3.54
2023-02-16T09:04:19.156Z,3.76
2023-02-16T09:06:48.424Z,4.12
2023-02-16T09:09:16.081Z,3.97
2023-02-16T09:11:42.854Z,4.15
2023-02-16T09:14:10.514Z,4.30
2023-02-16T09:16:39.746Z,4.61
2023-02-16T09:19:07.134Z,4.74
2023-02-16T09:21:33.873Z,4.90
2023-02-16T09:24:03.611Z,5.11
2023-02-16T09:26:38.496Z,5.29
2023-02-16T09:29:07.126Z,5.10
2023-02-16T09:31:37.259Z,4.69
2023-02-16T09:34:14.359Z,4.84
2023-02-16T09:36:41.568Z,5.10
2023-02-16T09:39:08.290Z,5.11
2023-02-16T09:41:41.093Z,5.50
2023-02-16T09:44:46.746Z,5.41
2023-02-16T09:47:34.930Z,5.91
2023-02-16T09:50:13.171Z,5.89
2023-02-16T09:53:00.922Z,5.85
2023-02-16T09:55:46.501Z,5.81
2023-02-16T09:58:19.415Z,5.98
2023-02-16T10:01:03.017Z,6.09
2023-02-16T10:04:01.001Z,6.46
2023-02-16T10:06:50.517Z,6.61
2023-02-16T10:09:19.691Z,6.27
2023-02-16T10:12:22.336Z,6.77
2023-02-16T10:14:50.399Z,7.25
2023-02-16T10:17:24.020Z,7.38
2023-02-16T10:20:12.002Z,7.25
2023-02-16T10:23:09.455Z,7.16
2023-02-16T10:25:54.768Z,7.38
2023-02-16T10:28:46.408Z,7.40
2023-02-16T10:31:20.992Z,7.24
2023-02-16T10:34:15.258Z,7.49
2023-02-16T10:37:16.561Z,7.47
2023-02-16T10:39:46.885Z,7.34
2023-02-16T10:42:46.832Z,7.84
2023-02-16T10:45:27.286Z,8.15
2023-02-16T10:47:54.588Z,8.31
2023-02-16T10:50:33.351Z,8.65
2023-02-16T10:53:06.712Z,8.67
2023-02-16T10:55:33.334Z,8.46
2023-02-16T10:58:02.055Z,8.41
2023-02-16T11:00:51.895Z,8.62
2023-02-16T11:03:23.052Z,8.73
2023-02-16T11:05:49.648Z,8.85
2023-02-16T11:08:17.873Z,8.55
2023-02-16T11:10:49.065Z,8.35
2023-02-16T11:13:25.088Z,8.35
2023-02-16T11:15:58.324Z,8.41
2023-02-16T11:18:27.861Z,8.74
2023-02-16T11:20:55.338Z,9.14
2023-02-16T11:23:26.845Z,9.44
2023-02-16T11:26:00.584Z,9.45
2023-02-16T11:28:32.792Z,9.69
2023-02-16T11:31:00.809Z,9.77
2023-02-16T11:33:28.873Z,9.55
2023-02-16T11:35:56.449Z,9.38
2023-02-16T11:38:35.586Z,9.71
2023-02-16T11:41:05.682Z,9.67
2023-02-16T11:43:36.465Z,9.88
2023-02-16T11:46:07.886Z,10.26
2023-02-16T11:48:34.715Z,10.40
2023-02-16T11:51:07.638Z,9.91
2023-02-16T11:53:37.398Z,9.90
2023-02-16T11:56:19.119Z,10.16
2023-02-16T11:58:45.886Z,10.37
2023-02-16T12:01:30.202Z,10.55
2023-02-16T12:04:23.066Z,10.17
2023-02-16T12:06:49.811Z,10.35
2023-02-16T12:09:23.628Z,10.35
2023-02-16T12:12:17.902Z,10.66
2023-02-16T12:15:03.530Z,10.98
2023-02-16T12:18:18.862Z,11.17
2023-02-16T12:20:54.863Z,11.02
2023-02-16T12:23:48.188Z,11.37
2023-02-16T12:26:48.929Z,11.65
2023-02-16T12:29:38.224Z,11.64
2023-02-16T12:32:32.770Z,11.31
2023-02-16T12:35:31.654Z,11.11
2023-02-16T12:38:19.809Z,11.39
2023-02-16T12:41:13.588Z,11.49
2023-02-16T12:43:48.741Z,11.53
2023-02-16T12:46:27.215Z,11.93
2023-02-16T12:49:01.210Z,11.97
2023-02-16T12:51:35.701Z,11.95
2023-02-16T12:54:16.421Z,12.36
2023-02-16T12:56:48.082Z,11.81
2023-02-16T12:59:26.358Z,11.94
2023-02-16T13:01:56.273Z,11.92
2023-02-16T13:04:50.737Z,12.80
2023-02-16T13:07:28.756Z,12.72
2023-02-16T13:10:02.074Z,13.00
2023-02-16T13:12:37.657Z,12.93
2023-02-16T13:15:21.391Z,13.00
2023-02-16T13:17:57.162Z,13.16
2023-02-16T13:20:25.250Z,13.08
2023-02-16T13:23:12.571Z,12.89
2023-02-16T13:25:54.576Z,12.99
2023-02-16T13:28:27.644Z,13.01
2023-02-16T13:31:15.429Z,13.00
2023-02-16T13:34:04.447Z,13.59
2023-02-16T13:36:59.338Z,13.80
2023-02-16T13:39:25.922Z,13.37
2023-02-16T13:42:13.165Z,13.63
2023-02-16T13:45:01.930Z,13.05
2023-02-16T13:47:37.647Z,12.98
2023-02-16T13:50:24.897Z,13.13
2023-02-16T13:52:53.257Z,13.62
2023-02-16T13:55:28.983Z,13.63
2023-02-16T13:58:21.819Z,13.69
2023-02-16T14:00:50.039Z,13.61
2023-02-16T14:03:16.715Z,13.64
2023-02-16T14:05:49.638Z,12.83
2023-02-16T14:08:19.488Z,13.46
2023-02-16T14:10:55.261Z,13.57
2023-02-16T14:13:52.974Z,13.29
2023-02-16T14:16:22.516Z,13.69
2023-02-16T14:19:23.707Z,13.63
2023-02-16T14:21:51.648Z,13.34
2023-02-16T14:24:33.382Z,13.94
2023-02-16T14:27:05.081Z,14.00
2023-02-16T14:29:34.890Z,13.80
2023-02-16T14:32:20.944Z,13.56
2023-02-16T14:35:22.035Z,13.44
2023-02-16T14:37:57.419Z,13.22
2023-02-16T14:40:51.984Z,13.28
2023-02-16T14:43:31.671Z,13.50
2023-02-16T14:46:14.009Z,13.50
2023-02-16T14:48:57.288Z,13.59
2023-02-16T14:51:57.582Z,13.09
2023-02-16T14:54:37.624Z,13.17
2023-02-16T14:57:21.676Z,12.69
2023-02-16T14:59:51.078Z,13.37
2023-02-16T15:02:34.617Z,13.56
2023-02-16T15:05:19.453Z,13.34
2023-02-16T15:07:52.552Z,13.40
2023-02-16T15:10:27.057Z,13.14
2023-02-16T15:12:55.814Z,13.27
2023-02-16T15:15:31.523Z,14.01
2023-02-16T15:17:58.210Z,13.64
2023-02-16T15:20:35.444Z,13.43
2023-02-16T15:23:06.234Z,12.62
2023-02-16T15:25:40.787Z,12.86
2023-02-16T15:28:10.267Z,12.66
2023-02-16T15:30:41.369Z,12.40
2023-02-16T15:33:14.328Z,12.25
2023-02-16T15:35:43.773Z,12.14
2023-02-16T15:38:13.207Z,11.85
2023-02-16T15:40:40.407Z,11.44
2023-02-16T15:43:49.344Z,11.33
2023-02-16T15:46:16.987Z,11.15
2023-02-16T15:48:43.674Z,10.96
2023-02-16T15:51:13.732Z,10.74
2023-02-16T15:53:56.327Z,10.59
2023-02-16T15:56:46.216Z,10.20
2023-02-16T15:59:39.341Z,10.23
2023-02-16T16:02:20.787Z,9.92
2023-02-16T16:04:54.928Z,9.83
2023-02-16T16:07:32.104Z,9.76
2023-02-16T16:10:00.437Z,9.61
2023-02-16T16:12:28.734Z,9.65
2023-02-16T16:14:58.050Z,9.37
2023-02-16T16:17:34.345Z,9.32
2023-02-16T16:20:40.196Z,9.16
2023-02-16T16:23:26.042Z,9.04
2023-02-16T16:25:53.585Z,8.97
2023-02-16T16:28:27.136Z,8.89
2023-02-16T16:31:23.627Z,8.78
2023-02-16T16:33:59.421Z,8.82
2023-02-16T16:36:44.680Z,8.57
2023-02-16T16:39:17.334Z,8.59
2023-02-16T16:42:09.916Z,8.52
2023-02-16T16:44:40.394Z,8.45
2023-02-16T16:47:24.556Z,8.33
2023-02-16T16:50:10.172Z,8.16
2023-02-16T16:53:43.478Z,8.06
2023-02-16T16:56:15.218Z,7.84
2023-02-16T16:58:42.202Z,7.66
2023-02-16T17:01:12.468Z,7.82
2023-02-16T17:03:39.135Z,7.57
2023-02-16T17:06:06.897Z,7.60
2023-02-16T17:08:33.819Z,7.60
2023-02-16T17:11:10.584Z,7.68
2023-02-16T17:13:37.204Z,7.72
2023-02-16T17:16:14.362Z,7.60
2023-02-16T17:18:41.230Z,7.73
2023-02-16T17:21:10.605Z,7.87
2023-02-16T17:23:45.187Z,7.60
2023-02-16T17:26:17.150Z,7.86
2023-02-16T17:28:43.931Z,8.00
2023-02-16T17:31:11.238Z,7.84
2023-02-16T17:33:38.057Z,8.16
2023-02-16T17:36:06.855Z,7.61
2023-02-16T17:38:34.589Z,7.53
2023-02-16T17:41:01.225Z,7.05
2023-02-16T17:43:31.413Z,7.60
2023-02-16T17:46:01.253Z,6.97
2023-02-16T17:48:30.476Z,6.54
2023-02-16T17:50:58.059Z,7.04
2023-02-16T17:53:26.180Z,6.87
2023-02-16T17:55:56.210Z,6.44
2023-02-16T17:58:24.338Z,5.87
2023-02-16T18:00:53.911Z,5.50
2023-02-16T18:03:22.922Z,5.56
2023-02-16T18:05:50.367Z,4.27
2023-02-16T18:08:18.660Z,3.76
2023-02-16T18:10:51.687Z,4.41
2023-02-16T18:13:19.268Z,4.37
2023-02-16T18:15:49.007Z,4.08
2023-02-16T18:18:17.814Z,4.20
2023-02-16T18:20:53.501Z,4.31
2023-02-16T18:26:14.682Z,4.13
2023-02-16T18:28:42.061Z,3.48
2023-02-16T18:31:09.860Z,3.82
2023-02-16T18:33:36.570Z,4.13
2023-02-16T18:36:05.249Z,4.14
2023-02-16T18:38:32.807Z,3.71
2023-02-16T18:43:49.487Z,4.00
2023-02-16T18:46:16.525Z,4.18
2023-02-16T18:48:59.756Z,4.03
2023-02-16T18:51:29.480Z,4.23
2023-02-16T18:53:57.711Z,4.21
2023-02-16T18:56:24.402Z,4.11
2023-02-16T18:58:53.891Z,4.08
2023-02-16T19:01:35.185Z,3.92
2023-02-16T19:04:03.224Z,3.44
2023-02-16T19:06:29.962Z,3.79
2023-02-16T19:08:58.500Z,4.05
2023-02-16T19:11:25.633Z,3.95
2023-02-16T19:13:52.287Z,3.92
2023-02-16T19:16:22.723Z,3.83
2023-02-16T19:18:49.376Z,3.68
2023-02-16T19:21:16.068Z,3.73
2023-02-16T19:23:43.431Z,3.23
2023-02-16T19:26:12.532Z,3.89
2023-02-16T19:28:54.530Z,3.87
2023-02-16T19:31:25.116Z,3.73
2023-02-16T19:33:52.572Z,3.82
2023-02-16T19:36:20.582Z,3.22
2023-02-16T19:38:47.941Z,3.54
2023-02-16T19:41:22.625Z,3.80
2023-02-16T19:43:49.647Z,3.78
2023-02-16T19:46:16.482Z,3.36
2023-02-16T19:48:43.704Z,3.70
2023-02-16T19:51:13.641Z,3.52
2023-02-16T19:53:42.435Z,3.25
2023-02-16T19:56:13.121Z,3.24
2023-02-16T19:58:39.768Z,3.34
2023-02-16T20:01:23.392Z,3.44
2023-02-16T20:03:51.715Z,2.72
2023-02-16T20:06:28.189Z,3.26
2023-02-16T20:08:56.114Z,2.68
2023-02-16T20:11:25.810Z,2.34
2023-02-16T20:13:55.972Z,2.53
2023-02-16T20:16:22.970Z,2.52
2023-02-16T20:18:51.932Z,2.60
2023-02-16T20:21:26.681Z,1.84
2023-02-16T20:23:56.609Z,2.15
2023-02-16T20:26:31.399Z,2.75
2023-02-16T20:28:59.861Z,2.52
2023-02-16T20:31:30.924Z,2.59
2023-02-16T20:33:59.273Z,2.28
2023-02-16T20:36:26.444Z,2.63
2023-02-16T20:38:53.419Z,2.65
2023-02-16T20:41:20.828Z,2.61
2023-02-16T20:43:47.897Z,2.65
2023-02-16T20:46:15.678Z,2.16
2023-02-16T20:48:51.275Z,2.06
2023-02-16T20:51:18.796Z,1.98
2023-02-16T20:53:45.855Z,2.12
2023-02-16T20:56:16.792Z,1.92
2023-02-16T20:58:48.254Z,1.66
2023-02-16T21:01:23.919Z,1.93
2023-02-16T21:03:52.660Z,1.45
2023-02-16T21:06:19.560Z,1.64
2023-02-16T21:08:46.496Z,1.86
2023-02-16T21:11:18.322Z,1.88
2023-02-16T21:13:45.454Z,1.68
2023-02-16T21:16:14.251Z,1.44
2023-02-16T21:18:41.109Z,1.94
2023-02-16T21:21:09.047Z,1.42
2023-02-16T21:23:36.420Z,1.95
2023-02-16T21:26:05.712Z,2.29
2023-02-16T21:28:33.143Z,1.95
2023-02-16T21:31:09.997Z,2.18
2023-02-16T21:33:38.380Z,1.99
2023-02-16T21:36:14.077Z,2.01
2023-02-16T21:38:42.317Z,1.30
2023-02-16T21:41:26.310Z,1.76
2023-02-16T21:44:03.276Z,2.05
2023-02-16T21:46:36.070Z,2.06
2023-02-16T21:49:04.106Z,1.91
2023-02-16T21:51:33.772Z,1.66
2023-02-16T21:54:00.469Z,1.49
2023-02-16T21:56:37.615Z,2.13
2023-02-16T21:59:06.800Z,1.84
2023-02-16T22:01:37.355Z,2.22
2023-02-16T22:04:04.946Z,2.08
2023-02-16T22:06:38.404Z,2.19
2023-02-16T22:09:08.042Z,2.04
2023-02-16T22:11:34.964Z,2.20
2023-02-16T22:14:02.368Z,2.25
2023-02-16T22:16:31.191Z,2.17
2023-02-16T22:19:07.253Z,2.18
2023-02-16T22:21:41.896Z,2.29
2023-02-16T22:24:14.066Z,2.21
2023-02-16T22:26:41.888Z,1.78
2023-02-16T22:29:08.846Z,1.97
2023-02-16T22:31:36.577Z,2.12
2023-02-16T22:34:06.413Z,2.07
2023-02-16T22:36:33.911Z,1.33
2023-02-16T22:39:00.616Z,1.34
2023-02-16T22:41:27.502Z,1.39
2023-02-16T22:43:55.646Z,1.12
2023-02-16T22:46:26.469Z,1.07
2023-02-16T22:48:58.634Z,0.53
2023-02-16T22:51:27.762Z,0.74
2023-02-16T22:53:55.115Z,0.78
2023-02-16T22:56:21.855Z,0.76
2023-02-16T22:58:48.853Z,0.65
2023-02-16T23:01:21.101Z,0.33
2023-02-16T23:03:48.786Z,0.82
2023-02-16T23:06:18.767Z,0.51
2023-02-16T23:08:47.149Z,0.74
2023-02-16T23:11:14.058Z,0.92
2023-02-16T23:13:40.730Z,0.25
2023-02-16T23:16:11.647Z,1.20
2023-02-16T23:18:38.719Z,1.04
2023-02-16T23:21:09.223Z,0.84
2023-02-16T23:23:36.961Z,1.11
2023-02-16T23:26:06.453Z,1.46
2023-02-16T23:28:34.356Z,1.52
2023-02-16T23:31:01.476Z,1.39
2023-02-16T23:33:28.194Z,0.78
2023-02-16T23:35:55.091Z,1.09
2023-02-16T23:38:21.981Z,1.52
2023-02-16T23:40:58.567Z,1.54
2023-02-16T23:43:25.476Z,1.40
2023-02-16T23:45:52.720Z,1.20
2023-02-16T23:48:19.467Z,1.38
2023-02-16T23:50:46.637Z,0.98
2023-02-16T23:53:13.516Z,1.43
2023-02-16T23:55:40.188Z,1.54
2023-02-16T23:58:06.841Z,1.42
